Capitol Logistics 1138


EDDW
Neuenland Airport
Bremen, DE
EBLG
Liège Airport
Liege, BE

Activity Log

Date Flight Route Aircraft Duration
11/07/2019 CPX738 Not Available B738 1h 30m
10/28/2019 CPX738 N0435F260 BASU4A BASUM UM170 OSN T884 ABAMI/N0430F240 T884 AGENI UZ158 LNO LNO4D B738 1h 04m
10/16/2019 CPX738 BASU4A BASUM UM170 BAM UZ158 LNO LNO4D B738 0h 54m

Route Details

Aircraft Information
Primary: Boeing 737-800BCF
Backup: Not Available
Route Data
Distance: 190nm
Sched. Duration: 0h 45m
Avg. Duration: 0h 96m (+51m)
Times Flown: 3
Recm'd Route: Not Available
Planned Altitude: 24,000ft
Origin Wx: EDDW 272150Z 28007KT 5000 -RA BKN005 02/01 Q1003
Dest. Wx: EBLG 272150Z 29012G22KT 240V320 9999 -SHRASN FEW004 SCT021 01/M00 Q1010 R22/591093 NOSIG
Notes:

Financial History
Total Freight: 126,192lbs
Average Load: 42,064lbs/flt
Fuel Used: 16,939lbs
Avg. Fuel Used: 5,646lbs/flt
Fuel Expense: $13,551
Avg. Fuel Expense: $4,517
Avg. Fuel Cost: $0.80/lbs
Total Gross Income: $252,384
Pilot Pay: $697
Total Expenses: $27,413
Total Revenue: $210,610
Average Revenue: $84,128.00